createdAt,value
2023-04-04T00:01:11.117Z,100058.08
2023-04-04T00:03:43.264Z,100059.73
2023-04-04T00:06:11.673Z,100056.75
2023-04-04T00:08:39.938Z,100058.18
2023-04-04T00:11:08.439Z,100057.48
2023-04-04T00:13:38.869Z,100054.48
2023-04-04T00:16:07.018Z,100052.06
2023-04-04T00:18:38.987Z,100048.17
2023-04-04T00:21:07.667Z,100050.73
2023-04-04T00:23:37.327Z,100047.64
2023-04-04T00:26:05.553Z,100042.67
2023-04-04T00:28:33.604Z,100044.83
2023-04-04T00:31:02.394Z,100043.08
2023-04-04T00:33:31.405Z,100048.48
2023-04-04T00:35:59.877Z,100046.27
2023-04-04T00:38:29.696Z,100042.80
2023-04-04T00:40:57.803Z,100044.89
2023-04-04T00:43:25.958Z,100049.48
2023-04-04T00:45:54.055Z,100048.00
2023-04-04T00:48:24.425Z,100048.54
2023-04-04T00:50:52.759Z,100055.02
2023-04-04T00:53:20.794Z,100057.40
2023-04-04T00:55:49.171Z,100060.95
2023-04-04T00:58:17.435Z,100057.60
2023-04-04T01:00:45.470Z,100056.16
2023-04-04T01:03:25.276Z,100051.98
2023-04-04T01:05:55.286Z,100052.06
2023-04-04T01:08:25.109Z,100051.20
2023-04-04T01:10:56.330Z,100052.52
2023-04-04T01:13:24.516Z,100049.24
2023-04-04T01:15:53.196Z,100047.25
2023-04-04T01:18:22.225Z,100051.01
2023-04-04T01:24:03.253Z,100058.07
2023-04-04T01:26:42.029Z,100051.63
2023-04-04T01:29:10.499Z,100053.11
2023-04-04T01:31:41.856Z,100059.04
2023-04-04T01:34:12.277Z,100062.21
2023-04-04T01:36:58.138Z,100061.41
2023-04-04T01:39:35.947Z,100055.85
2023-04-04T01:42:05.362Z,100059.15
2023-04-04T01:44:34.541Z,100061.79
2023-04-04T01:47:11.865Z,100069.09
2023-04-04T01:49:40.930Z,100073.22
2023-04-04T01:52:09.734Z,100074.20
2023-04-04T01:54:39.190Z,100075.11
2023-04-04T01:57:07.517Z,100075.70
2023-04-04T01:59:36.674Z,100078.83
2023-04-04T02:02:04.995Z,100083.49
2023-04-04T02:04:33.287Z,100085.23
2023-04-04T02:07:05.217Z,100089.70
2023-04-04T02:09:34.516Z,100086.37
2023-04-04T02:12:03.220Z,100084.88
2023-04-04T02:14:35.809Z,100085.59
2023-04-04T02:17:04.061Z,100081.63
2023-04-04T02:19:32.237Z,100080.13
2023-04-04T02:22:01.126Z,100082.19
2023-04-04T02:24:30.015Z,100077.90
2023-04-04T02:26:58.088Z,100073.27
2023-04-04T02:29:27.863Z,100072.41
2023-04-04T02:31:56.282Z,100071.02
2023-04-04T02:34:24.460Z,100066.93
2023-04-04T02:36:53.659Z,100060.04
2023-04-04T02:39:22.401Z,100059.08
2023-04-04T02:41:52.721Z,100059.44
2023-04-04T02:44:20.925Z,100055.54
2023-04-04T02:46:55.930Z,100048.84
2023-04-04T02:49:29.784Z,100044.30
2023-04-04T02:51:58.150Z,100042.27
2023-04-04T02:54:27.250Z,100035.17
2023-04-04T02:56:55.740Z,100032.30
2023-04-04T02:59:24.916Z,100037.31
2023-04-04T03:01:53.486Z,100035.16
2023-04-04T03:04:21.995Z,100026.66
2023-04-04T03:06:50.254Z,100028.79
2023-04-04T03:09:19.354Z,100033.10
2023-04-04T03:11:47.454Z,100036.28
2023-04-04T03:14:23.691Z,100044.55
2023-04-04T03:16:53.672Z,100049.45
2023-04-04T03:19:21.896Z,100057.02
2023-04-04T03:21:52.317Z,100059.78
2023-04-04T03:24:20.526Z,100060.13
2023-04-04T03:26:48.695Z,100063.23
2023-04-04T03:29:17.451Z,100065.19
2023-04-04T03:31:46.796Z,100070.70
2023-04-04T03:34:15.842Z,100074.08
2023-04-04T03:36:46.704Z,100077.92
2023-04-04T03:39:14.959Z,100078.58
2023-04-04T03:41:43.106Z,100080.70
2023-04-04T03:44:11.119Z,100090.02
2023-04-04T03:46:40.732Z,100096.48
2023-04-04T03:49:09.586Z,100094.85
2023-04-04T03:51:41.977Z,100089.00
2023-04-04T03:54:10.256Z,100087.58
2023-04-04T03:56:38.891Z,100085.09
2023-04-04T03:59:07.273Z,100082.15
2023-04-04T04:01:36.026Z,100084.60
2023-04-04T04:04:06.761Z,100085.63
2023-04-04T04:06:36.090Z,100089.33
2023-04-04T04:09:04.233Z,100091.59
2023-04-04T04:11:34.003Z,100087.46
2023-04-04T04:14:02.080Z,100084.95
2023-04-04T04:16:30.253Z,100088.63
2023-04-04T04:18:59.274Z,100093.15
2023-04-04T04:21:37.804Z,100101.08
2023-04-04T04:24:08.586Z,100108.85
2023-04-04T04:26:37.330Z,100107.42
2023-04-04T04:29:07.541Z,100108.63
2023-04-04T04:31:36.334Z,100100.58
2023-04-04T04:34:08.776Z,100107.15
2023-04-04T04:36:39.820Z,100112.39
2023-04-04T04:39:36.571Z,100115.23
2023-04-04T04:42:21.516Z,100115.50
2023-04-04T04:44:53.855Z,100115.84
2023-04-04T04:47:22.940Z,100116.25
2023-04-04T04:49:54.870Z,100118.77
2023-04-04T04:52:32.725Z,100122.95
2023-04-04T04:55:02.169Z,100122.98
2023-04-04T04:57:31.278Z,100127.09
2023-04-04T05:00:01.466Z,100130.05
2023-04-04T05:02:34.447Z,100130.61
2023-04-04T05:05:03.282Z,100123.79
2023-04-04T05:07:33.753Z,100121.54
2023-04-04T05:10:07.259Z,100120.41
2023-04-04T05:12:37.307Z,100122.66
2023-04-04T05:15:06.807Z,100125.73
2023-04-04T05:17:36.284Z,100129.76
2023-04-04T05:20:08.777Z,100128.21
2023-04-04T05:22:42.260Z,100120.54
2023-04-04T05:25:13.942Z,100123.02
2023-04-04T05:27:48.848Z,100123.84
2023-04-04T05:30:18.660Z,100123.22
2023-04-04T05:32:58.612Z,100124.98
2023-04-04T05:35:29.586Z,100128.61
2023-04-04T05:37:58.574Z,100137.02
2023-04-04T05:40:26.907Z,100142.39
2023-04-04T05:43:04.827Z,100156.63
2023-04-04T05:45:41.794Z,100159.35
2023-04-04T05:48:10.837Z,100144.30
2023-04-04T05:50:47.495Z,100118.36
2023-04-04T05:53:17.283Z,100100.91
2023-04-04T05:55:47.438Z,100109.84
2023-04-04T05:58:19.608Z,100133.92
2023-04-04T06:00:52.555Z,100147.72
2023-04-04T06:03:22.327Z,100153.36
2023-04-04T06:05:55.680Z,100147.42
2023-04-04T06:08:26.009Z,100149.71
2023-04-04T06:10:56.117Z,100150.64
2023-04-04T06:13:24.910Z,100161.31
2023-04-04T06:15:57.203Z,100167.75
2023-04-04T06:18:25.510Z,100170.80
2023-04-04T06:20:56.896Z,100164.71
2023-04-04T06:23:26.177Z,100165.64
2023-04-04T06:25:54.470Z,100166.20
2023-04-04T06:28:24.022Z,100171.02
2023-04-04T06:30:52.546Z,100167.91
2023-04-04T06:33:30.472Z,100168.91
2023-04-04T06:35:59.054Z,100167.91
2023-04-04T06:38:31.654Z,100171.78
2023-04-04T06:41:04.020Z,100171.70
2023-04-04T06:43:32.161Z,100164.67
2023-04-04T06:46:00.220Z,100161.98
2023-04-04T06:48:28.445Z,100162.06
2023-04-04T06:50:57.219Z,100164.35
2023-04-04T06:53:27.318Z,100163.86
2023-04-04T06:55:55.740Z,100164.56
2023-04-04T06:58:28.506Z,100164.71
2023-04-04T07:01:00.038Z,100161.88
2023-04-04T07:03:29.034Z,100156.15
2023-04-04T07:05:57.684Z,100155.00
2023-04-04T07:08:27.518Z,100150.38
2023-04-04T07:10:59.011Z,100151.37
2023-04-04T07:13:29.673Z,100149.33
2023-04-04T07:15:58.140Z,100152.73
2023-04-04T07:18:26.297Z,100150.03
2023-04-04T07:20:54.307Z,100150.27
2023-04-04T07:23:24.673Z,100157.10
2023-04-04T07:25:53.458Z,100163.70
2023-04-04T07:28:22.063Z,100162.17
2023-04-04T07:31:01.980Z,100163.59
2023-04-04T07:33:32.464Z,100164.96
2023-04-04T07:36:03.641Z,100167.80
2023-04-04T07:38:34.875Z,100172.47
2023-04-04T07:41:04.392Z,100172.96
2023-04-04T07:43:34.288Z,100173.46
2023-04-04T07:46:04.732Z,100174.13
2023-04-04T07:48:32.986Z,100173.29
2023-04-04T07:51:05.403Z,100177.21
2023-04-04T07:53:34.406Z,100182.47
2023-04-04T07:56:06.607Z,100186.54
2023-04-04T07:58:37.551Z,100186.16
2023-04-04T08:01:05.476Z,100185.82
2023-04-04T08:03:35.160Z,100186.36
2023-04-04T08:06:03.307Z,100186.26
2023-04-04T08:08:32.721Z,100184.54
2023-04-04T08:11:03.193Z,100186.86
2023-04-04T08:13:32.830Z,100180.99
2023-04-04T08:16:01.360Z,100183.67
2023-04-04T08:18:30.513Z,100186.22
2023-04-04T08:20:59.120Z,100188.70
2023-04-04T08:23:27.847Z,100189.13
2023-04-04T08:25:56.237Z,100186.67
2023-04-04T08:28:24.289Z,100188.48
2023-04-04T08:30:54.636Z,100181.69
2023-04-04T08:33:37.362Z,100175.76
2023-04-04T08:36:16.325Z,100177.49
2023-04-04T08:38:47.930Z,100179.93
2023-04-04T08:41:16.291Z,100178.91
2023-04-04T08:43:54.326Z,100177.04
2023-04-04T08:46:23.522Z,100182.00
2023-04-04T08:48:53.046Z,100183.58
2023-04-04T08:51:21.192Z,100181.59
2023-04-04T08:53:53.602Z,100184.09
2023-04-04T08:56:21.872Z,100182.10
2023-04-04T08:58:50.090Z,100183.34
2023-04-04T09:01:18.396Z,100186.55
2023-04-04T09:03:48.253Z,100192.47
2023-04-04T09:06:16.692Z,100187.50
2023-04-04T09:08:45.544Z,100191.35
2023-04-04T09:11:14.058Z,100191.59
2023-04-04T09:13:42.055Z,100194.45
2023-04-04T09:16:10.486Z,100201.48
2023-04-04T09:18:39.294Z,100198.11
2023-04-04T09:21:14.797Z,100200.91
2023-04-04T09:23:43.740Z,100197.05
2023-04-04T09:26:13.459Z,100197.52
2023-04-04T09:28:44.039Z,100198.11
2023-04-04T09:31:11.991Z,100203.05
2023-04-04T09:33:40.320Z,100204.86
2023-04-04T09:36:11.158Z,100205.58
2023-04-04T09:38:45.569Z,100205.56
2023-04-04T09:41:14.788Z,100206.03
2023-04-04T09:43:45.146Z,100201.84
2023-04-04T09:46:13.262Z,100205.42
2023-04-04T09:48:44.104Z,100203.91
2023-04-04T09:51:12.852Z,100204.98
2023-04-04T09:53:44.449Z,100202.68
2023-04-04T09:56:12.935Z,100202.27
2023-04-04T09:58:52.465Z,100201.13
2023-04-04T10:01:28.824Z,100198.98
2023-04-04T10:03:58.222Z,100195.67
2023-04-04T10:06:27.109Z,100192.73
2023-04-04T10:08:56.645Z,100194.05
2023-04-04T10:11:34.510Z,100198.05
2023-04-04T10:14:06.990Z,100193.27
2023-04-04T10:16:37.999Z,100192.48
2023-04-04T10:19:09.219Z,100188.18
2023-04-04T10:21:43.255Z,100189.83
2023-04-04T10:24:11.568Z,100191.27
2023-04-04T10:26:39.986Z,100189.10
2023-04-04T10:29:10.402Z,100189.27
2023-04-04T10:31:41.042Z,100186.61
2023-04-04T10:34:18.840Z,100186.45
2023-04-04T10:36:54.375Z,100181.39
2023-04-04T10:39:41.090Z,100179.69
2023-04-04T10:42:09.063Z,100184.98
2023-04-04T10:44:39.469Z,100180.34
2023-04-04T10:47:19.673Z,100180.06
2023-04-04T10:49:48.628Z,100175.98
2023-04-04T10:52:24.984Z,100176.17
2023-04-04T10:54:55.003Z,100181.58
2023-04-04T10:57:23.981Z,100173.10
2023-04-04T11:00:04.255Z,100175.80
2023-04-04T11:02:51.550Z,100176.84
2023-04-04T11:05:42.337Z,100177.46
2023-04-04T11:08:14.166Z,100177.48
2023-04-04T11:10:47.776Z,100186.36
2023-04-04T11:13:26.578Z,100182.73
2023-04-04T11:16:17.287Z,100184.94
2023-04-04T11:18:50.303Z,100182.98
2023-04-04T11:21:20.249Z,100184.14
2023-04-04T11:23:51.328Z,100183.58
2023-04-04T11:26:28.497Z,100185.35
2023-04-04T11:29:00.159Z,100186.13
2023-04-04T11:31:33.773Z,100188.27
2023-04-04T11:34:15.241Z,100191.82
2023-04-04T11:36:45.357Z,100191.61
2023-04-04T11:39:24.715Z,100190.46
2023-04-04T11:41:55.786Z,100191.58
2023-04-04T11:44:29.438Z,100192.60
2023-04-04T11:47:02.552Z,100189.89
2023-04-04T11:49:38.387Z,100187.65
2023-04-04T11:52:11.584Z,100184.91
2023-04-04T11:54:40.869Z,100186.56
2023-04-04T11:57:19.457Z,100186.58
2023-04-04T11:59:48.859Z,100189.77
2023-04-04T12:02:20.527Z,100188.04
2023-04-04T12:04:49.283Z,100187.29
2023-04-04T12:07:21.219Z,100183.75
2023-04-04T12:09:49.616Z,100178.76
2023-04-04T12:12:17.774Z,100178.94
2023-04-04T12:14:50.380Z,100183.02
2023-04-04T12:17:19.798Z,100187.91
2023-04-04T12:19:47.830Z,100192.38
2023-04-04T12:22:16.524Z,100188.34
2023-04-04T12:24:45.075Z,100190.98
2023-04-04T12:27:13.387Z,100192.80
2023-04-04T12:29:43.103Z,100192.56
2023-04-04T12:32:13.808Z,100188.73
2023-04-04T12:34:45.561Z,100186.52
2023-04-04T12:37:19.170Z,100184.44
2023-04-04T12:39:52.642Z,100178.19
2023-04-04T12:42:24.632Z,100176.97
2023-04-04T12:44:53.825Z,100169.58
2023-04-04T12:47:24.573Z,100170.45
2023-04-04T12:49:56.544Z,100167.13
2023-04-04T12:52:30.301Z,100168.22
2023-04-04T12:55:08.069Z,100165.21
2023-04-04T12:57:39.597Z,100164.52
2023-04-04T13:00:09.441Z,100166.01
2023-04-04T13:02:38.803Z,100167.05
2023-04-04T13:05:08.035Z,100164.73
2023-04-04T13:07:44.579Z,100166.03
2023-04-04T13:10:15.095Z,100163.42
2023-04-04T13:12:58.814Z,100159.70
2023-04-04T13:15:49.602Z,100158.33
2023-04-04T13:18:22.636Z,100162.40
2023-04-04T13:20:52.392Z,100160.32
2023-04-04T13:23:21.564Z,100160.45
2023-04-04T13:25:50.058Z,100159.17
2023-04-04T13:28:18.455Z,100160.23
2023-04-04T13:30:49.225Z,100155.70
2023-04-04T13:33:18.227Z,100149.61
2023-04-04T13:35:46.613Z,100150.13
2023-04-04T13:41:03.621Z,100154.15
2023-04-04T13:43:35.447Z,100152.16
2023-04-04T13:46:03.428Z,100152.04
2023-04-04T13:48:32.316Z,100147.67
2023-04-04T13:51:01.287Z,100145.30
2023-04-04T13:53:29.334Z,100142.75
2023-04-04T13:56:17.156Z,100142.16
2023-04-04T13:58:46.484Z,100136.13
2023-04-04T14:01:14.546Z,100133.48
2023-04-04T14:03:43.916Z,100130.56
2023-04-04T14:06:12.714Z,100126.48
2023-04-04T14:08:40.913Z,100129.87
2023-04-04T14:11:14.070Z,100132.42
2023-04-04T14:13:43.383Z,100130.08
2023-04-04T14:16:12.046Z,100130.59
2023-04-04T14:18:41.490Z,100131.15
2023-04-04T14:21:13.867Z,100136.30
2023-04-04T14:23:42.983Z,100135.81
2023-04-04T14:26:14.302Z,100134.59
2023-04-04T14:28:42.714Z,100133.98
2023-04-04T14:31:10.889Z,100133.65
2023-04-04T14:33:39.424Z,100128.66
2023-04-04T14:36:08.544Z,100130.55
2023-04-04T14:38:36.978Z,100129.06
2023-04-04T14:41:05.181Z,100125.04
2023-04-04T14:43:35.454Z,100129.23
2023-04-04T14:46:05.273Z,100128.38
2023-04-04T14:48:34.785Z,100124.10
2023-04-04T14:51:05.719Z,100124.59
2023-04-04T14:53:33.759Z,100121.20
2023-04-04T14:56:01.891Z,100118.32
2023-04-04T14:58:33.205Z,100124.58
2023-04-04T15:01:01.560Z,100125.56
2023-04-04T15:03:30.711Z,100129.23
2023-04-04T15:05:58.712Z,100127.21
2023-04-04T15:08:28.495Z,100124.75
2023-04-04T15:10:56.425Z,100123.98
2023-04-04T15:13:31.395Z,100129.86
2023-04-04T15:16:01.666Z,100131.60
2023-04-04T15:18:30.542Z,100133.75
2023-04-04T15:21:00.306Z,100133.56
2023-04-04T15:23:28.390Z,100139.25
2023-04-04T15:25:56.525Z,100141.11
2023-04-04T15:28:27.258Z,100136.03
2023-04-04T15:30:56.619Z,100135.48
2023-04-04T15:33:24.864Z,100135.09
2023-04-04T15:35:53.253Z,100129.97
2023-04-04T15:38:21.611Z,100133.95
2023-04-04T15:40:50.508Z,100134.84
2023-04-04T15:43:19.900Z,100135.09
2023-04-04T15:45:47.963Z,100136.13
2023-04-04T15:48:16.604Z,100137.20
2023-04-04T15:50:44.810Z,100132.81
2023-04-04T15:53:13.636Z,100133.81
2023-04-04T15:55:42.853Z,100132.89
2023-04-04T15:58:11.228Z,100131.27
2023-04-04T16:00:39.569Z,100128.70
2023-04-04T16:03:13.997Z,100126.70
2023-04-04T16:05:42.384Z,100126.95
2023-04-04T16:08:16.302Z,100124.88
2023-04-04T16:10:44.961Z,100121.43
2023-04-04T16:13:13.451Z,100118.82
2023-04-04T16:15:46.803Z,100119.92
2023-04-04T16:18:15.711Z,100120.70
2023-04-04T16:20:44.452Z,100117.11
2023-04-04T16:23:18.454Z,100115.23
2023-04-04T16:25:47.334Z,100112.96
2023-04-04T16:28:15.598Z,100109.86
2023-04-04T16:30:44.085Z,100111.45
2023-04-04T16:33:13.886Z,100105.31
2023-04-04T16:35:42.381Z,100101.16
2023-04-04T16:38:12.696Z,100102.36
2023-04-04T16:40:41.498Z,100093.06
2023-04-04T16:43:10.178Z,100098.85
2023-04-04T16:45:39.434Z,100094.54
2023-04-04T16:48:07.825Z,100089.80
2023-04-04T16:50:40.704Z,100088.66
2023-04-04T16:53:09.954Z,100083.14
2023-04-04T16:55:38.109Z,100079.88
2023-04-04T16:58:06.327Z,100079.52
2023-04-04T17:00:35.531Z,100078.55
2023-04-04T17:03:05.109Z,100074.98
2023-04-04T17:05:34.046Z,100072.35
2023-04-04T17:08:02.046Z,100071.28
2023-04-04T17:10:31.525Z,100070.58
2023-04-04T17:12:59.710Z,100067.53
2023-04-04T17:15:28.513Z,100068.04
2023-04-04T17:17:57.227Z,100066.09
2023-04-04T17:20:28.376Z,100066.15
2023-04-04T17:22:57.935Z,100063.56
2023-04-04T17:25:29.195Z,100061.20
2023-04-04T17:27:57.778Z,100059.39
2023-04-04T17:30:26.591Z,100056.87
2023-04-04T17:32:56.369Z,100054.14
2023-04-04T17:35:25.350Z,100050.75
2023-04-04T17:37:54.066Z,100046.88
2023-04-04T17:40:23.691Z,100049.78
2023-04-04T17:42:52.263Z,100049.16
2023-04-04T17:45:20.580Z,100049.45
2023-04-04T17:47:48.836Z,100050.52
2023-04-04T17:50:17.811Z,100049.42
2023-04-04T17:52:46.498Z,100045.66
2023-04-04T17:55:22.545Z,100049.14
2023-04-04T17:57:51.097Z,100046.50
2023-04-04T18:00:20.091Z,100051.20
2023-04-04T18:02:48.857Z,100054.98
2023-04-04T18:05:17.093Z,100059.23
2023-04-04T18:07:45.464Z,100063.85
2023-04-04T18:10:13.892Z,100062.70
2023-04-04T18:12:44.409Z,100068.81
2023-04-04T18:15:12.845Z,100061.41
2023-04-04T18:17:42.189Z,100058.23
2023-04-04T18:20:14.312Z,100052.29
2023-04-04T18:22:48.336Z,100053.00
2023-04-04T18:25:17.828Z,100054.61
2023-04-04T18:27:45.991Z,100056.63
2023-04-04T18:30:14.115Z,100059.96
2023-04-04T18:32:42.605Z,100054.28
2023-04-04T18:35:10.695Z,100054.44
2023-04-04T18:37:38.892Z,100056.59
2023-04-04T18:40:08.431Z,100050.55
2023-04-04T18:42:37.591Z,100049.70
2023-04-04T18:45:08.128Z,100049.29
2023-04-04T18:47:36.970Z,100056.34
2023-04-04T18:50:07.013Z,100056.36
2023-04-04T18:52:36.532Z,100053.91
2023-04-04T18:55:08.990Z,100059.95
2023-04-04T18:57:38.723Z,100063.19
2023-04-04T19:00:08.230Z,100060.16
2023-04-04T19:02:38.486Z,100062.63
2023-04-04T19:05:08.940Z,100066.41
2023-04-04T19:07:37.574Z,100065.27
2023-04-04T19:10:08.150Z,100064.61
2023-04-04T19:12:41.079Z,100070.14
2023-04-04T19:15:09.354Z,100075.46
2023-04-04T19:17:39.109Z,100077.63
2023-04-04T19:20:08.477Z,100084.70
2023-04-04T19:22:36.461Z,100089.45
2023-04-04T19:25:04.967Z,100091.14
2023-04-04T19:27:33.032Z,100088.20
2023-04-04T19:30:05.252Z,100087.84
2023-04-04T19:32:42.924Z,100083.08
2023-04-04T19:35:42.160Z,100072.02
2023-04-04T19:38:11.067Z,100056.97
2023-04-04T19:40:49.280Z,100043.20
2023-04-04T19:43:22.741Z,100031.27
2023-04-04T19:45:52.353Z,100029.77
2023-04-04T19:48:43.754Z,100021.45
2023-04-04T19:51:17.647Z,100011.62
2023-04-04T19:53:47.426Z,100009.68
2023-04-04T19:56:16.693Z,100012.90
2023-04-04T19:58:45.660Z,100020.00
2023-04-04T20:01:19.320Z,100026.98
2023-04-04T20:03:47.507Z,100034.44
2023-04-04T20:06:28.402Z,100042.59
2023-04-04T20:09:02.062Z,100049.35
2023-04-04T20:11:35.052Z,100060.41
2023-04-04T20:14:07.317Z,100061.55
2023-04-04T20:16:35.718Z,100064.39
2023-04-04T20:19:06.706Z,100057.76
2023-04-04T20:21:36.091Z,100058.61
2023-04-04T20:24:08.348Z,100064.36
2023-04-04T20:26:38.185Z,100067.25
2023-04-04T20:29:08.367Z,100071.80
2023-04-04T20:31:54.078Z,100074.33
2023-04-04T20:34:38.760Z,100071.27
2023-04-04T20:37:12.601Z,100068.21
2023-04-04T20:39:46.834Z,100068.33
2023-04-04T20:42:30.623Z,100072.89
2023-04-04T20:45:08.232Z,100068.04
2023-04-04T20:47:46.972Z,100064.09
2023-04-04T20:50:18.776Z,100065.70
2023-04-04T20:52:50.572Z,100063.75
2023-04-04T20:55:19.430Z,100063.86
2023-04-04T20:57:48.713Z,100063.23
2023-04-04T21:00:28.697Z,100059.19
2023-04-04T21:03:07.425Z,100052.45
2023-04-04T21:05:38.564Z,100045.64
2023-04-04T21:08:29.613Z,100046.70
2023-04-04T21:10:57.787Z,100040.84
2023-04-04T21:13:31.258Z,100033.50
2023-04-04T21:16:00.808Z,100029.30
2023-04-04T21:18:30.770Z,100023.38
2023-04-04T21:21:13.919Z,100024.79
2023-04-04T21:23:50.001Z,100022.59
2023-04-04T21:26:32.025Z,100026.23
2023-04-04T21:29:07.891Z,100025.90
2023-04-04T21:31:38.572Z,100023.51
2023-04-04T21:34:10.666Z,100016.21
2023-04-04T21:36:41.408Z,100008.11
2023-04-04T21:39:23.888Z,100004.61
2023-04-04T21:41:56.577Z,100002.33
2023-04-04T21:44:25.520Z,100005.54
2023-04-04T21:46:56.505Z,100004.12
2023-04-04T21:49:24.778Z,100005.31
2023-04-04T21:51:53.263Z,100003.85
2023-04-04T21:54:21.729Z,100004.92
2023-04-04T21:56:49.706Z,100003.20
2023-04-04T21:59:18.027Z,99999.70
2023-04-04T22:01:46.209Z,99993.40
2023-04-04T22:04:15.463Z,99983.76
2023-04-04T22:06:44.129Z,99986.83
2023-04-04T22:09:12.115Z,99986.58
2023-04-04T22:11:44.445Z,99990.81
2023-04-04T22:14:17.371Z,99993.05
2023-04-04T22:16:46.018Z,99988.41
2023-04-04T22:19:14.284Z,99982.23
2023-04-04T22:21:47.297Z,99972.42
2023-04-04T22:24:18.655Z,99975.19
2023-04-04T22:26:47.360Z,99974.49
2023-04-04T22:29:15.498Z,99974.42
2023-04-04T22:31:45.734Z,99975.94
2023-04-04T22:34:15.226Z,99980.60
2023-04-04T22:36:45.889Z,99982.63
2023-04-04T22:39:16.316Z,99971.57
2023-04-04T22:41:44.993Z,99971.56
2023-04-04T22:44:13.410Z,99964.48
2023-04-04T22:46:41.656Z,99968.52
2023-04-04T22:49:10.017Z,99974.10
2023-04-04T22:51:45.724Z,99971.40
2023-04-04T22:54:15.929Z,99971.00
2023-04-04T22:56:44.609Z,99970.56
2023-04-04T22:59:17.860Z,99965.15
2023-04-04T23:01:47.543Z,99959.27
2023-04-04T23:04:16.756Z,99949.50
2023-04-04T23:06:46.416Z,99944.15
2023-04-04T23:09:14.757Z,99935.98
2023-04-04T23:11:42.890Z,99935.73
2023-04-04T23:14:14.854Z,99927.79
2023-04-04T23:16:44.207Z,99934.20
2023-04-04T23:19:12.756Z,99949.70
2023-04-04T23:21:49.397Z,99946.54
2023-04-04T23:24:17.862Z,99949.02
2023-04-04T23:26:45.905Z,99948.39
2023-04-04T23:29:14.581Z,99934.40
2023-04-04T23:31:42.948Z,99930.06
2023-04-04T23:34:11.351Z,99936.31
2023-04-04T23:36:39.333Z,99944.55
2023-04-04T23:39:11.703Z,99946.90
2023-04-04T23:41:40.661Z,99941.98
2023-04-04T23:44:08.661Z,99940.33
2023-04-04T23:46:37.701Z,99936.30
2023-04-04T23:49:06.170Z,99931.19
2023-04-04T23:51:39.917Z,99924.92
2023-04-04T23:54:10.611Z,99936.19
2023-04-04T23:56:38.766Z,99940.31
2023-04-04T23:59:07.386Z,99931.96
